sensor_id;sensor_type;location;lat;lon;timestamp;P1;durP1;ratioP1;P2;durP2;ratioP2
6505;SDS011;3286;49.858;8.768;2022-08-21T00:01:43;5.50;;;4.00;;
6505;SDS011;3286;49.858;8.768;2022-08-21T00:04:10;5.65;;;4.13;;
6505;SDS011;3286;49.858;8.768;2022-08-21T00:06:37;5.55;;;3.80;;
6505;SDS011;3286;49.858;8.768;2022-08-21T00:09:05;6.65;;;4.20;;
6505;SDS011;3286;49.858;8.768;2022-08-21T00:11:33;8.32;;;3.65;;
6505;SDS011;3286;49.858;8.768;2022-08-21T00:14:01;9.85;;;4.18;;
6505;SDS011;3286;49.858;8.768;2022-08-21T00:16:28;8.20;;;3.67;;
6505;SDS011;3286;49.858;8.768;2022-08-21T00:18:57;5.97;;;3.70;;
6505;SDS011;3286;49.858;8.768;2022-08-21T00:21:24;5.57;;;3.90;;
6505;SDS011;3286;49.858;8.768;2022-08-21T00:23:51;6.15;;;4.30;;
6505;SDS011;3286;49.858;8.768;2022-08-21T00:26:18;5.47;;;3.88;;
6505;SDS011;3286;49.858;8.768;2022-08-21T00:28:44;10.57;;;3.78;;
6505;SDS011;3286;49.858;8.768;2022-08-21T00:31:13;6.00;;;4.97;;
6505;SDS011;3286;49.858;8.768;2022-08-21T00:33:41;4.90;;;3.72;;
6505;SDS011;3286;49.858;8.768;2022-08-21T00:36:09;6.43;;;3.80;;
6505;SDS011;3286;49.858;8.768;2022-08-21T00:38:36;10.25;;;4.05;;
6505;SDS011;3286;49.858;8.768;2022-08-21T00:41:04;6.90;;;4.20;;
6505;SDS011;3286;49.858;8.768;2022-08-21T00:43:34;7.20;;;3.90;;
6505;SDS011;3286;49.858;8.768;2022-08-21T00:46:04;8.68;;;4.20;;
6505;SDS011;3286;49.858;8.768;2022-08-21T00:48:32;9.35;;;4.03;;
6505;SDS011;3286;49.858;8.768;2022-08-21T00:51:00;7.05;;;4.00;;
6505;SDS011;3286;49.858;8.768;2022-08-21T00:53:31;10.52;;;4.18;;
6505;SDS011;3286;49.858;8.768;2022-08-21T00:55:59;7.03;;;3.70;;
6505;SDS011;3286;49.858;8.768;2022-08-21T00:58:28;6.10;;;3.80;;
6505;SDS011;3286;49.858;8.768;2022-08-21T01:01:00;5.65;;;4.10;;
6505;SDS011;3286;49.858;8.768;2022-08-21T01:03:29;6.63;;;4.38;;
6505;SDS011;3286;49.858;8.768;2022-08-21T01:05:56;4.85;;;3.55;;
6505;SDS011;3286;49.858;8.768;2022-08-21T01:08:23;6.43;;;3.75;;
6505;SDS011;3286;49.858;8.768;2022-08-21T01:10:53;4.93;;;4.10;;
6505;SDS011;3286;49.858;8.768;2022-08-21T01:13:21;6.28;;;4.30;;
6505;SDS011;3286;49.858;8.768;2022-08-21T01:15:50;7.68;;;3.72;;
6505;SDS011;3286;49.858;8.768;2022-08-21T01:18:18;9.15;;;4.15;;
6505;SDS011;3286;49.858;8.768;2022-08-21T01:20:58;10.07;;;4.40;;
6505;SDS011;3286;49.858;8.768;2022-08-21T01:23:26;6.90;;;3.85;;
6505;SDS011;3286;49.858;8.768;2022-08-21T01:25:53;8.40;;;4.63;;
6505;SDS011;3286;49.858;8.768;2022-08-21T01:28:21;6.13;;;4.18;;
6505;SDS011;3286;49.858;8.768;2022-08-21T01:30:50;6.40;;;4.10;;
6505;SDS011;3286;49.858;8.768;2022-08-21T01:33:19;6.65;;;3.70;;
6505;SDS011;3286;49.858;8.768;2022-08-21T01:35:52;6.85;;;4.25;;
6505;SDS011;3286;49.858;8.768;2022-08-21T01:38:23;7.38;;;4.38;;
6505;SDS011;3286;49.858;8.768;2022-08-21T01:40:50;7.68;;;4.72;;
6505;SDS011;3286;49.858;8.768;2022-08-21T01:43:17;7.82;;;4.38;;
6505;SDS011;3286;49.858;8.768;2022-08-21T01:45:43;6.85;;;4.88;;
6505;SDS011;3286;49.858;8.768;2022-08-21T01:48:10;5.95;;;4.60;;
6505;SDS011;3286;49.858;8.768;2022-08-21T01:50:37;6.70;;;4.07;;
6505;SDS011;3286;49.858;8.768;2022-08-21T01:53:04;8.90;;;4.97;;
6505;SDS011;3286;49.858;8.768;2022-08-21T01:55:32;8.30;;;4.20;;
6505;SDS011;3286;49.858;8.768;2022-08-21T01:57:59;8.35;;;4.70;;
6505;SDS011;3286;49.858;8.768;2022-08-21T02:00:26;6.85;;;4.22;;
6505;SDS011;3286;49.858;8.768;2022-08-21T02:02:52;5.47;;;4.40;;
6505;SDS011;3286;49.858;8.768;2022-08-21T02:05:19;7.03;;;4.20;;
6505;SDS011;3286;49.858;8.768;2022-08-21T02:07:49;6.38;;;4.30;;
6505;SDS011;3286;49.858;8.768;2022-08-21T02:10:18;8.30;;;4.50;;
6505;SDS011;3286;49.858;8.768;2022-08-21T02:12:52;5.10;;;3.97;;
6505;SDS011;3286;49.858;8.768;2022-08-21T02:15:19;7.47;;;4.25;;
6505;SDS011;3286;49.858;8.768;2022-08-21T02:17:50;5.82;;;4.00;;
6505;SDS011;3286;49.858;8.768;2022-08-21T02:20:21;5.57;;;4.00;;
6505;SDS011;3286;49.858;8.768;2022-08-21T02:22:51;8.77;;;5.10;;
6505;SDS011;3286;49.858;8.768;2022-08-21T02:25:19;6.57;;;4.10;;
6505;SDS011;3286;49.858;8.768;2022-08-21T02:27:50;9.82;;;4.13;;
6505;SDS011;3286;49.858;8.768;2022-08-21T02:30:19;9.48;;;4.32;;
6505;SDS011;3286;49.858;8.768;2022-08-21T02:32:49;5.68;;;3.80;;
6505;SDS011;3286;49.858;8.768;2022-08-21T02:35:16;5.97;;;4.13;;
6505;SDS011;3286;49.858;8.768;2022-08-21T02:37:44;9.27;;;4.03;;
6505;SDS011;3286;49.858;8.768;2022-08-21T02:40:21;6.60;;;4.28;;
6505;SDS011;3286;49.858;8.768;2022-08-21T02:42:51;6.57;;;4.07;;
6505;SDS011;3286;49.858;8.768;2022-08-21T02:45:21;8.32;;;4.53;;
6505;SDS011;3286;49.858;8.768;2022-08-21T02:47:48;4.60;;;3.70;;
6505;SDS011;3286;49.858;8.768;2022-08-21T02:50:17;4.88;;;3.60;;
6505;SDS011;3286;49.858;8.768;2022-08-21T02:52:49;8.40;;;4.70;;
6505;SDS011;3286;49.858;8.768;2022-08-21T02:55:18;6.63;;;3.80;;
6505;SDS011;3286;49.858;8.768;2022-08-21T02:57:46;8.57;;;4.20;;
6505;SDS011;3286;49.858;8.768;2022-08-21T03:00:15;6.55;;;3.72;;
6505;SDS011;3286;49.858;8.768;2022-08-21T03:02:48;7.22;;;4.00;;
6505;SDS011;3286;49.858;8.768;2022-08-21T03:05:15;9.02;;;3.92;;
6505;SDS011;3286;49.858;8.768;2022-08-21T03:07:43;7.70;;;3.70;;
6505;SDS011;3286;49.858;8.768;2022-08-21T03:10:13;6.72;;;3.55;;
6505;SDS011;3286;49.858;8.768;2022-08-21T03:12:41;8.35;;;3.50;;
6505;SDS011;3286;49.858;8.768;2022-08-21T03:15:09;4.97;;;3.67;;
6505;SDS011;3286;49.858;8.768;2022-08-21T03:17:40;7.15;;;3.60;;
6505;SDS011;3286;49.858;8.768;2022-08-21T03:20:07;7.82;;;3.50;;
6505;SDS011;3286;49.858;8.768;2022-08-21T03:22:35;6.68;;;3.60;;
6505;SDS011;3286;49.858;8.768;2022-08-21T03:25:04;6.93;;;3.55;;
6505;SDS011;3286;49.858;8.768;2022-08-21T03:27:32;9.75;;;3.85;;
6505;SDS011;3286;49.858;8.768;2022-08-21T03:29:59;8.30;;;3.85;;
6505;SDS011;3286;49.858;8.768;2022-08-21T03:32:26;5.65;;;3.65;;
6505;SDS011;3286;49.858;8.768;2022-08-21T03:34:55;8.77;;;3.80;;
6505;SDS011;3286;49.858;8.768;2022-08-21T03:37:22;7.28;;;4.10;;
6505;SDS011;3286;49.858;8.768;2022-08-21T03:39:51;5.35;;;3.33;;
6505;SDS011;3286;49.858;8.768;2022-08-21T03:42:19;7.18;;;4.07;;
6505;SDS011;3286;49.858;8.768;2022-08-21T03:44:49;8.48;;;3.72;;
6505;SDS011;3286;49.858;8.768;2022-08-21T03:47:16;4.93;;;3.13;;
6505;SDS011;3286;49.858;8.768;2022-08-21T03:49:43;6.00;;;3.20;;
6505;SDS011;3286;49.858;8.768;2022-08-21T03:52:20;9.38;;;3.92;;
6505;SDS011;3286;49.858;8.768;2022-08-21T03:54:48;9.48;;;3.78;;
6505;SDS011;3286;49.858;8.768;2022-08-21T03:57:18;6.68;;;3.30;;
6505;SDS011;3286;49.858;8.768;2022-08-21T03:59:54;6.38;;;3.65;;
6505;SDS011;3286;49.858;8.768;2022-08-21T04:02:21;4.35;;;3.40;;
6505;SDS011;3286;49.858;8.768;2022-08-21T04:04:48;7.15;;;3.90;;
6505;SDS011;3286;49.858;8.768;2022-08-21T04:07:14;7.47;;;3.50;;
6505;SDS011;3286;49.858;8.768;2022-08-21T04:09:43;7.45;;;3.10;;
6505;SDS011;3286;49.858;8.768;2022-08-21T04:12:10;6.53;;;3.53;;
6505;SDS011;3286;49.858;8.768;2022-08-21T04:14:36;5.40;;;3.58;;
6505;SDS011;3286;49.858;8.768;2022-08-21T04:17:03;7.60;;;3.55;;
6505;SDS011;3286;49.858;8.768;2022-08-21T04:19:30;8.85;;;3.30;;
6505;SDS011;3286;49.858;8.768;2022-08-21T04:22:00;5.18;;;3.38;;
6505;SDS011;3286;49.858;8.768;2022-08-21T04:24:27;7.15;;;3.40;;
6505;SDS011;3286;49.858;8.768;2022-08-21T04:26:55;8.43;;;3.45;;
6505;SDS011;3286;49.858;8.768;2022-08-21T04:29:22;7.10;;;3.72;;
6505;SDS011;3286;49.858;8.768;2022-08-21T04:31:54;9.30;;;3.40;;
6505;SDS011;3286;49.858;8.768;2022-08-21T04:34:21;6.13;;;3.30;;
6505;SDS011;3286;49.858;8.768;2022-08-21T04:36:47;6.22;;;2.95;;
6505;SDS011;3286;49.858;8.768;2022-08-21T04:39:16;6.15;;;3.10;;
6505;SDS011;3286;49.858;8.768;2022-08-21T04:41:43;5.28;;;3.50;;
6505;SDS011;3286;49.858;8.768;2022-08-21T04:44:13;5.35;;;3.10;;
6505;SDS011;3286;49.858;8.768;2022-08-21T04:46:44;10.98;;;3.45;;
6505;SDS011;3286;49.858;8.768;2022-08-21T04:49:11;5.93;;;3.83;;
6505;SDS011;3286;49.858;8.768;2022-08-21T04:51:37;7.30;;;3.75;;
6505;SDS011;3286;49.858;8.768;2022-08-21T04:54:08;9.10;;;3.88;;
6505;SDS011;3286;49.858;8.768;2022-08-21T04:56:40;6.38;;;3.70;;
6505;SDS011;3286;49.858;8.768;2022-08-21T04:59:11;6.93;;;3.63;;
6505;SDS011;3286;49.858;8.768;2022-08-21T05:01:41;7.07;;;3.90;;
6505;SDS011;3286;49.858;8.768;2022-08-21T05:04:10;6.45;;;3.72;;
6505;SDS011;3286;49.858;8.768;2022-08-21T05:06:39;5.53;;;3.38;;
6505;SDS011;3286;49.858;8.768;2022-08-21T05:09:08;5.97;;;3.53;;
6505;SDS011;3286;49.858;8.768;2022-08-21T05:11:38;7.85;;;3.42;;
6505;SDS011;3286;49.858;8.768;2022-08-21T05:14:06;7.57;;;3.60;;
6505;SDS011;3286;49.858;8.768;2022-08-21T05:16:34;8.63;;;3.50;;
6505;SDS011;3286;49.858;8.768;2022-08-21T05:19:00;10.05;;;3.80;;
6505;SDS011;3286;49.858;8.768;2022-08-21T05:21:27;5.57;;;3.45;;
6505;SDS011;3286;49.858;8.768;2022-08-21T05:23:54;7.63;;;3.53;;
6505;SDS011;3286;49.858;8.768;2022-08-21T05:26:20;5.32;;;3.47;;
6505;SDS011;3286;49.858;8.768;2022-08-21T05:28:47;6.88;;;3.35;;
6505;SDS011;3286;49.858;8.768;2022-08-21T05:31:29;5.85;;;3.42;;
6505;SDS011;3286;49.858;8.768;2022-08-21T05:33:57;6.25;;;3.90;;
6505;SDS011;3286;49.858;8.768;2022-08-21T05:36:23;7.68;;;4.32;;
6505;SDS011;3286;49.858;8.768;2022-08-21T05:38:53;6.32;;;4.28;;
6505;SDS011;3286;49.858;8.768;2022-08-21T05:41:20;5.75;;;3.97;;
6505;SDS011;3286;49.858;8.768;2022-08-21T05:43:47;5.95;;;4.07;;
6505;SDS011;3286;49.858;8.768;2022-08-21T05:46:14;9.38;;;3.72;;
6505;SDS011;3286;49.858;8.768;2022-08-21T05:48:44;9.20;;;3.80;;
6505;SDS011;3286;49.858;8.768;2022-08-21T05:51:13;5.78;;;3.38;;
6505;SDS011;3286;49.858;8.768;2022-08-21T05:53:42;6.38;;;3.35;;
6505;SDS011;3286;49.858;8.768;2022-08-21T05:56:11;9.00;;;3.92;;
6505;SDS011;3286;49.858;8.768;2022-08-21T05:58:41;6.10;;;3.90;;
6505;SDS011;3286;49.858;8.768;2022-08-21T06:01:08;5.55;;;4.00;;
6505;SDS011;3286;49.858;8.768;2022-08-21T06:03:36;11.50;;;4.82;;
6505;SDS011;3286;49.858;8.768;2022-08-21T06:06:04;6.50;;;4.25;;
6505;SDS011;3286;49.858;8.768;2022-08-21T06:08:34;9.50;;;4.60;;
6505;SDS011;3286;49.858;8.768;2022-08-21T06:11:02;7.40;;;4.22;;
6505;SDS011;3286;49.858;8.768;2022-08-21T06:13:31;6.32;;;4.60;;
6505;SDS011;3286;49.858;8.768;2022-08-21T06:16:02;5.75;;;4.40;;
6505;SDS011;3286;49.858;8.768;2022-08-21T06:18:31;6.72;;;4.80;;
6505;SDS011;3286;49.858;8.768;2022-08-21T06:20:58;8.02;;;5.28;;
6505;SDS011;3286;49.858;8.768;2022-08-21T06:23:24;8.10;;;4.93;;
6505;SDS011;3286;49.858;8.768;2022-08-21T06:25:52;7.07;;;4.80;;
6505;SDS011;3286;49.858;8.768;2022-08-21T06:28:19;6.35;;;4.43;;
6505;SDS011;3286;49.858;8.768;2022-08-21T06:30:46;9.75;;;4.65;;
6505;SDS011;3286;49.858;8.768;2022-08-21T06:33:13;7.07;;;4.65;;
6505;SDS011;3286;49.858;8.768;2022-08-21T06:35:40;8.80;;;4.28;;
6505;SDS011;3286;49.858;8.768;2022-08-21T06:38:07;9.85;;;4.43;;
6505;SDS011;3286;49.858;8.768;2022-08-21T06:40:37;6.43;;;4.72;;
6505;SDS011;3286;49.858;8.768;2022-08-21T06:43:06;7.75;;;4.25;;
6505;SDS011;3286;49.858;8.768;2022-08-21T06:45:34;8.02;;;4.60;;
6505;SDS011;3286;49.858;8.768;2022-08-21T06:48:02;10.88;;;5.25;;
6505;SDS011;3286;49.858;8.768;2022-08-21T06:50:29;8.90;;;4.50;;
6505;SDS011;3286;49.858;8.768;2022-08-21T06:53:03;8.93;;;4.97;;
6505;SDS011;3286;49.858;8.768;2022-08-21T06:55:31;9.60;;;4.88;;
6505;SDS011;3286;49.858;8.768;2022-08-21T06:58:01;9.07;;;5.18;;
6505;SDS011;3286;49.858;8.768;2022-08-21T07:00:30;7.63;;;4.35;;
6505;SDS011;3286;49.858;8.768;2022-08-21T07:02:58;9.05;;;5.07;;
6505;SDS011;3286;49.858;8.768;2022-08-21T07:05:25;5.45;;;4.30;;
6505;SDS011;3286;49.858;8.768;2022-08-21T07:07:52;7.88;;;4.40;;
6505;SDS011;3286;49.858;8.768;2022-08-21T07:10:18;5.40;;;4.45;;
6505;SDS011;3286;49.858;8.768;2022-08-21T07:12:50;8.93;;;4.80;;
6505;SDS011;3286;49.858;8.768;2022-08-21T07:15:19;7.50;;;4.60;;
6505;SDS011;3286;49.858;8.768;2022-08-21T07:17:51;7.88;;;4.85;;
6505;SDS011;3286;49.858;8.768;2022-08-21T07:20:18;9.25;;;5.57;;
6505;SDS011;3286;49.858;8.768;2022-08-21T07:22:44;7.28;;;4.82;;
6505;SDS011;3286;49.858;8.768;2022-08-21T07:25:11;8.30;;;5.20;;
6505;SDS011;3286;49.858;8.768;2022-08-21T07:27:40;9.27;;;5.30;;
6505;SDS011;3286;49.858;8.768;2022-08-21T07:30:09;10.13;;;5.15;;
6505;SDS011;3286;49.858;8.768;2022-08-21T07:32:39;9.35;;;6.10;;
6505;SDS011;3286;49.858;8.768;2022-08-21T07:35:10;7.30;;;4.93;;
6505;SDS011;3286;49.858;8.768;2022-08-21T07:37:37;10.40;;;5.13;;
6505;SDS011;3286;49.858;8.768;2022-08-21T07:40:07;8.13;;;4.82;;
6505;SDS011;3286;49.858;8.768;2022-08-21T07:42:34;9.35;;;4.75;;
6505;SDS011;3286;49.858;8.768;2022-08-21T07:45:06;6.35;;;3.72;;
6505;SDS011;3286;49.858;8.768;2022-08-21T07:47:36;7.47;;;4.45;;
6505;SDS011;3286;49.858;8.768;2022-08-21T07:50:03;6.90;;;4.47;;
6505;SDS011;3286;49.858;8.768;2022-08-21T07:52:35;7.90;;;5.05;;
6505;SDS011;3286;49.858;8.768;2022-08-21T07:55:02;8.13;;;4.57;;
6505;SDS011;3286;49.858;8.768;2022-08-21T07:57:32;5.05;;;4.40;;
6505;SDS011;3286;49.858;8.768;2022-08-21T07:59:59;5.75;;;4.53;;
6505;SDS011;3286;49.858;8.768;2022-08-21T08:02:28;9.90;;;5.20;;
6505;SDS011;3286;49.858;8.768;2022-08-21T08:04:57;7.68;;;4.10;;
6505;SDS011;3286;49.858;8.768;2022-08-21T08:07:24;5.95;;;4.32;;
6505;SDS011;3286;49.858;8.768;2022-08-21T08:09:55;6.72;;;4.63;;
6505;SDS011;3286;49.858;8.768;2022-08-21T08:12:22;7.25;;;4.45;;
6505;SDS011;3286;49.858;8.768;2022-08-21T08:14:54;8.38;;;4.38;;
6505;SDS011;3286;49.858;8.768;2022-08-21T08:17:23;4.70;;;3.67;;
6505;SDS011;3286;49.858;8.768;2022-08-21T08:19:50;5.72;;;4.07;;
6505;SDS011;3286;49.858;8.768;2022-08-21T08:22:19;6.53;;;4.25;;
6505;SDS011;3286;49.858;8.768;2022-08-21T08:24:49;7.93;;;4.32;;
6505;SDS011;3286;49.858;8.768;2022-08-21T08:27:19;5.60;;;3.08;;
6505;SDS011;3286;49.858;8.768;2022-08-21T08:29:51;6.38;;;4.15;;
6505;SDS011;3286;49.858;8.768;2022-08-21T08:32:21;8.43;;;4.00;;
6505;SDS011;3286;49.858;8.768;2022-08-21T08:34:49;5.80;;;3.55;;
6505;SDS011;3286;49.858;8.768;2022-08-21T08:37:18;7.07;;;3.60;;
6505;SDS011;3286;49.858;8.768;2022-08-21T08:39:45;7.53;;;3.10;;
6505;SDS011;3286;49.858;8.768;2022-08-21T08:42:13;7.13;;;2.92;;
6505;SDS011;3286;49.858;8.768;2022-08-21T08:44:45;8.52;;;4.38;;
6505;SDS011;3286;49.858;8.768;2022-08-21T08:47:13;4.80;;;3.75;;
6505;SDS011;3286;49.858;8.768;2022-08-21T08:49:53;7.47;;;3.78;;
6505;SDS011;3286;49.858;8.768;2022-08-21T08:52:26;7.78;;;3.25;;
6505;SDS011;3286;49.858;8.768;2022-08-21T08:54:57;6.50;;;3.63;;
6505;SDS011;3286;49.858;8.768;2022-08-21T08:57:27;8.20;;;3.38;;
6505;SDS011;3286;49.858;8.768;2022-08-21T08:59:57;5.80;;;3.53;;
6505;SDS011;3286;49.858;8.768;2022-08-21T09:02:26;5.75;;;3.60;;
6505;SDS011;3286;49.858;8.768;2022-08-21T09:04:54;7.05;;;3.35;;
6505;SDS011;3286;49.858;8.768;2022-08-21T09:07:24;6.85;;;3.78;;
6505;SDS011;3286;49.858;8.768;2022-08-21T09:10:04;5.78;;;3.30;;
6505;SDS011;3286;49.858;8.768;2022-08-21T09:12:40;4.95;;;3.08;;
6505;SDS011;3286;49.858;8.768;2022-08-21T09:15:30;9.30;;;3.67;;
6505;SDS011;3286;49.858;8.768;2022-08-21T09:18:03;5.43;;;3.08;;
6505;SDS011;3286;49.858;8.768;2022-08-21T09:20:44;6.22;;;3.53;;
6505;SDS011;3286;49.858;8.768;2022-08-21T09:23:18;5.05;;;2.95;;
6505;SDS011;3286;49.858;8.768;2022-08-21T09:25:56;8.27;;;3.55;;
6505;SDS011;3286;49.858;8.768;2022-08-21T09:28:30;5.88;;;2.78;;
6505;SDS011;3286;49.858;8.768;2022-08-21T09:31:01;6.78;;;3.00;;
6505;SDS011;3286;49.858;8.768;2022-08-21T09:33:33;6.65;;;3.20;;
6505;SDS011;3286;49.858;8.768;2022-08-21T09:36:00;6.03;;;3.78;;
6505;SDS011;3286;49.858;8.768;2022-08-21T09:38:28;3.80;;;2.70;;
6505;SDS011;3286;49.858;8.768;2022-08-21T09:40:59;7.03;;;3.03;;
6505;SDS011;3286;49.858;8.768;2022-08-21T09:43:28;4.82;;;2.70;;
6505;SDS011;3286;49.858;8.768;2022-08-21T09:46:04;5.85;;;3.03;;
6505;SDS011;3286;49.858;8.768;2022-08-21T09:48:38;8.15;;;3.15;;
6505;SDS011;3286;49.858;8.768;2022-08-21T09:51:09;6.68;;;2.90;;
6505;SDS011;3286;49.858;8.768;2022-08-21T09:53:39;7.28;;;2.80;;
6505;SDS011;3286;49.858;8.768;2022-08-21T09:56:17;6.35;;;2.95;;
6505;SDS011;3286;49.858;8.768;2022-08-21T09:59:17;4.43;;;2.90;;
6505;SDS011;3286;49.858;8.768;2022-08-21T10:01:49;8.13;;;3.30;;
6505;SDS011;3286;49.858;8.768;2022-08-21T10:04:19;5.10;;;3.00;;
6505;SDS011;3286;49.858;8.768;2022-08-21T10:06:50;6.28;;;2.97;;
6505;SDS011;3286;49.858;8.768;2022-08-21T10:09:18;6.55;;;2.92;;
6505;SDS011;3286;49.858;8.768;2022-08-21T10:11:49;4.47;;;2.58;;
6505;SDS011;3286;49.858;8.768;2022-08-21T10:14:33;6.38;;;2.85;;
6505;SDS011;3286;49.858;8.768;2022-08-21T10:17:12;5.03;;;2.58;;
6505;SDS011;3286;49.858;8.768;2022-08-21T10:19:50;5.68;;;3.33;;
6505;SDS011;3286;49.858;8.768;2022-08-21T10:22:28;5.63;;;2.72;;
6505;SDS011;3286;49.858;8.768;2022-08-21T10:25:02;7.93;;;3.42;;
6505;SDS011;3286;49.858;8.768;2022-08-21T10:27:39;5.57;;;3.03;;
6505;SDS011;3286;49.858;8.768;2022-08-21T10:30:14;5.70;;;2.92;;
6505;SDS011;3286;49.858;8.768;2022-08-21T10:32:52;6.65;;;3.00;;
6505;SDS011;3286;49.858;8.768;2022-08-21T10:35:30;5.60;;;3.28;;
6505;SDS011;3286;49.858;8.768;2022-08-21T10:38:17;5.50;;;2.88;;
6505;SDS011;3286;49.858;8.768;2022-08-21T10:41:14;4.85;;;2.90;;
6505;SDS011;3286;49.858;8.768;2022-08-21T10:43:49;7.00;;;2.70;;
6505;SDS011;3286;49.858;8.768;2022-08-21T10:46:26;5.95;;;2.60;;
6505;SDS011;3286;49.858;8.768;2022-08-21T10:49:11;8.68;;;2.90;;
6505;SDS011;3286;49.858;8.768;2022-08-21T10:51:46;5.97;;;2.58;;
6505;SDS011;3286;49.858;8.768;2022-08-21T10:54:22;3.63;;;2.00;;
6505;SDS011;3286;49.858;8.768;2022-08-21T10:56:58;8.48;;;3.20;;
6505;SDS011;3286;49.858;8.768;2022-08-21T10:59:33;5.75;;;2.55;;
6505;SDS011;3286;49.858;8.768;2022-08-21T11:02:09;4.05;;;2.50;;
6505;SDS011;3286;49.858;8.768;2022-08-21T11:04:45;5.18;;;2.90;;
6505;SDS011;3286;49.858;8.768;2022-08-21T11:07:21;5.70;;;2.40;;
6505;SDS011;3286;49.858;8.768;2022-08-21T11:09:54;2.88;;;2.40;;
6505;SDS011;3286;49.858;8.768;2022-08-21T11:12:24;5.55;;;2.90;;
6505;SDS011;3286;49.858;8.768;2022-08-21T11:14:58;6.63;;;3.00;;
6505;SDS011;3286;49.858;8.768;2022-08-21T11:17:30;5.57;;;3.17;;
6505;SDS011;3286;49.858;8.768;2022-08-21T11:20:03;11.20;;;3.13;;
6505;SDS011;3286;49.858;8.768;2022-08-21T11:22:38;5.43;;;2.47;;
6505;SDS011;3286;49.858;8.768;2022-08-21T11:25:23;4.60;;;2.40;;
6505;SDS011;3286;49.858;8.768;2022-08-21T11:27:58;6.30;;;2.80;;
6505;SDS011;3286;49.858;8.768;2022-08-21T11:30:33;4.25;;;2.58;;
6505;SDS011;3286;49.858;8.768;2022-08-21T11:33:13;5.70;;;2.65;;
6505;SDS011;3286;49.858;8.768;2022-08-21T11:35:58;4.63;;;2.60;;
6505;SDS011;3286;49.858;8.768;2022-08-21T11:38:33;7.15;;;2.60;;
6505;SDS011;3286;49.858;8.768;2022-08-21T11:41:08;5.22;;;2.58;;
6505;SDS011;3286;49.858;8.768;2022-08-21T11:43:44;5.63;;;2.60;;
6505;SDS011;3286;49.858;8.768;2022-08-21T11:46:26;5.22;;;2.55;;
6505;SDS011;3286;49.858;8.768;2022-08-21T11:49:16;6.53;;;2.55;;
6505;SDS011;3286;49.858;8.768;2022-08-21T11:52:02;3.97;;;2.50;;
6505;SDS011;3286;49.858;8.768;2022-08-21T11:54:40;4.93;;;2.35;;
6505;SDS011;3286;49.858;8.768;2022-08-21T11:57:14;4.53;;;2.63;;
6505;SDS011;3286;49.858;8.768;2022-08-21T11:59:46;4.55;;;2.47;;
6505;SDS011;3286;49.858;8.768;2022-08-21T12:02:20;6.63;;;2.60;;
6505;SDS011;3286;49.858;8.768;2022-08-21T12:04:52;4.07;;;2.40;;
6505;SDS011;3286;49.858;8.768;2022-08-21T12:07:30;6.57;;;2.58;;
6505;SDS011;3286;49.858;8.768;2022-08-21T12:10:00;6.63;;;3.00;;
6505;SDS011;3286;49.858;8.768;2022-08-21T12:12:28;8.43;;;3.05;;
6505;SDS011;3286;49.858;8.768;2022-08-21T12:15:06;7.00;;;2.55;;
6505;SDS011;3286;49.858;8.768;2022-08-21T12:17:40;4.38;;;2.40;;
6505;SDS011;3286;49.858;8.768;2022-08-21T12:20:17;3.67;;;2.50;;
6505;SDS011;3286;49.858;8.768;2022-08-21T12:23:05;5.53;;;2.63;;
6505;SDS011;3286;49.858;8.768;2022-08-21T12:25:43;5.82;;;2.70;;
6505;SDS011;3286;49.858;8.768;2022-08-21T12:28:15;6.43;;;2.53;;
6505;SDS011;3286;49.858;8.768;2022-08-21T12:30:49;5.57;;;2.60;;
6505;SDS011;3286;49.858;8.768;2022-08-21T12:33:20;5.18;;;2.55;;
6505;SDS011;3286;49.858;8.768;2022-08-21T12:35:50;5.47;;;2.45;;
6505;SDS011;3286;49.858;8.768;2022-08-21T12:38:31;3.65;;;2.45;;
6505;SDS011;3286;49.858;8.768;2022-08-21T12:41:01;12.63;;;6.53;;
6505;SDS011;3286;49.858;8.768;2022-08-21T12:43:33;5.90;;;2.97;;
6505;SDS011;3286;49.858;8.768;2022-08-21T12:46:13;4.28;;;2.33;;
6505;SDS011;3286;49.858;8.768;2022-08-21T12:48:45;3.85;;;2.25;;
6505;SDS011;3286;49.858;8.768;2022-08-21T12:51:17;4.85;;;2.60;;
6505;SDS011;3286;49.858;8.768;2022-08-21T12:53:50;4.90;;;2.35;;
6505;SDS011;3286;49.858;8.768;2022-08-21T12:56:19;6.78;;;2.47;;
6505;SDS011;3286;49.858;8.768;2022-08-21T12:58:48;6.47;;;2.90;;
6505;SDS011;3286;49.858;8.768;2022-08-21T13:01:23;5.03;;;2.30;;
6505;SDS011;3286;49.858;8.768;2022-08-21T13:03:52;5.20;;;2.00;;
6505;SDS011;3286;49.858;8.768;2022-08-21T13:06:20;4.55;;;2.35;;
6505;SDS011;3286;49.858;8.768;2022-08-21T13:09:03;9.98;;;2.65;;
6505;SDS011;3286;49.858;8.768;2022-08-21T13:11:32;6.32;;;2.35;;
6505;SDS011;3286;49.858;8.768;2022-08-21T13:14:00;4.25;;;2.10;;
6505;SDS011;3286;49.858;8.768;2022-08-21T13:16:29;4.88;;;2.40;;
6505;SDS011;3286;49.858;8.768;2022-08-21T13:18:58;3.58;;;2.28;;
6505;SDS011;3286;49.858;8.768;2022-08-21T13:21:27;5.35;;;2.30;;
6505;SDS011;3286;49.858;8.768;2022-08-21T13:24:07;4.32;;;2.50;;
6505;SDS011;3286;49.858;8.768;2022-08-21T13:26:36;3.85;;;2.42;;
6505;SDS011;3286;49.858;8.768;2022-08-21T13:29:06;5.70;;;2.50;;
6505;SDS011;3286;49.858;8.768;2022-08-21T13:31:36;4.57;;;2.20;;
6505;SDS011;3286;49.858;8.768;2022-08-21T13:34:07;6.30;;;2.40;;
6505;SDS011;3286;49.858;8.768;2022-08-21T13:36:39;3.95;;;2.50;;
6505;SDS011;3286;49.858;8.768;2022-08-21T13:39:11;4.13;;;2.30;;
6505;SDS011;3286;49.858;8.768;2022-08-21T13:41:43;5.53;;;2.13;;
6505;SDS011;3286;49.858;8.768;2022-08-21T13:44:16;4.07;;;1.98;;
6505;SDS011;3286;49.858;8.768;2022-08-21T13:46:51;6.03;;;2.53;;
6505;SDS011;3286;49.858;8.768;2022-08-21T13:49:21;5.65;;;2.10;;
6505;SDS011;3286;49.858;8.768;2022-08-21T13:51:55;2.72;;;2.30;;
6505;SDS011;3286;49.858;8.768;2022-08-21T13:54:27;4.05;;;2.28;;
6505;SDS011;3286;49.858;8.768;2022-08-21T13:57:14;7.97;;;2.40;;
6505;SDS011;3286;49.858;8.768;2022-08-21T13:59:42;4.72;;;2.20;;
6505;SDS011;3286;49.858;8.768;2022-08-21T14:02:11;3.65;;;2.10;;
6505;SDS011;3286;49.858;8.768;2022-08-21T14:04:42;7.22;;;2.40;;
6505;SDS011;3286;49.858;8.768;2022-08-21T14:07:17;2.38;;;1.92;;
6505;SDS011;3286;49.858;8.768;2022-08-21T14:09:53;9.07;;;2.08;;
6505;SDS011;3286;49.858;8.768;2022-08-21T14:12:27;6.80;;;2.28;;
6505;SDS011;3286;49.858;8.768;2022-08-21T14:15:01;3.75;;;2.13;;
6505;SDS011;3286;49.858;8.768;2022-08-21T14:17:32;2.65;;;2.00;;
6505;SDS011;3286;49.858;8.768;2022-08-21T14:20:02;4.43;;;2.28;;
6505;SDS011;3286;49.858;8.768;2022-08-21T14:22:36;3.63;;;2.30;;
6505;SDS011;3286;49.858;8.768;2022-08-21T14:25:06;9.18;;;2.20;;
6505;SDS011;3286;49.858;8.768;2022-08-21T14:27:36;5.10;;;2.17;;
6505;SDS011;3286;49.858;8.768;2022-08-21T14:30:09;5.00;;;2.10;;
6505;SDS011;3286;49.858;8.768;2022-08-21T14:32:39;6.28;;;2.22;;
6505;SDS011;3286;49.858;8.768;2022-08-21T14:35:09;5.07;;;2.42;;
6505;SDS011;3286;49.858;8.768;2022-08-21T14:37:36;4.63;;;2.35;;
6505;SDS011;3286;49.858;8.768;2022-08-21T14:40:06;3.58;;;2.00;;
6505;SDS011;3286;49.858;8.768;2022-08-21T14:42:34;4.05;;;2.22;;
6505;SDS011;3286;49.858;8.768;2022-08-21T14:45:08;4.38;;;2.20;;
6505;SDS011;3286;49.858;8.768;2022-08-21T14:47:41;6.10;;;2.60;;
6505;SDS011;3286;49.858;8.768;2022-08-21T14:50:09;4.60;;;2.25;;
6505;SDS011;3286;49.858;8.768;2022-08-21T14:52:36;6.18;;;2.40;;
6505;SDS011;3286;49.858;8.768;2022-08-21T14:55:06;7.50;;;2.30;;
6505;SDS011;3286;49.858;8.768;2022-08-21T14:57:35;3.88;;;2.10;;
6505;SDS011;3286;49.858;8.768;2022-08-21T15:00:04;4.60;;;2.50;;
6505;SDS011;3286;49.858;8.768;2022-08-21T15:02:32;4.43;;;2.15;;
6505;SDS011;3286;49.858;8.768;2022-08-21T15:04:58;3.78;;;2.53;;
6505;SDS011;3286;49.858;8.768;2022-08-21T15:07:25;3.70;;;2.20;;
6505;SDS011;3286;49.858;8.768;2022-08-21T15:09:52;6.72;;;2.58;;
6505;SDS011;3286;49.858;8.768;2022-08-21T15:12:20;3.38;;;2.10;;
6505;SDS011;3286;49.858;8.768;2022-08-21T15:14:46;4.82;;;2.03;;
6505;SDS011;3286;49.858;8.768;2022-08-21T15:17:13;4.63;;;2.40;;
6505;SDS011;3286;49.858;8.768;2022-08-21T15:19:40;2.78;;;1.98;;
6505;SDS011;3286;49.858;8.768;2022-08-21T15:22:07;3.72;;;2.03;;
6505;SDS011;3286;49.858;8.768;2022-08-21T15:24:34;3.33;;;1.95;;
6505;SDS011;3286;49.858;8.768;2022-08-21T15:27:01;3.65;;;2.22;;
6505;SDS011;3286;49.858;8.768;2022-08-21T15:29:34;4.10;;;2.10;;
6505;SDS011;3286;49.858;8.768;2022-08-21T15:32:15;3.80;;;2.30;;
6505;SDS011;3286;49.858;8.768;2022-08-21T15:34:44;3.95;;;2.22;;
6505;SDS011;3286;49.858;8.768;2022-08-21T15:37:13;4.07;;;2.80;;